sensor_id;sensor_type;location;lat;lon;timestamp;temperature;humidity
6468;DHT22;3267;48.794;9.928;2023-05-10T15:57:07;18.60;79.00
6468;DHT22;3267;48.794;9.928;2023-05-10T15:59:34;18.70;80.50
6468;DHT22;3267;48.794;9.928;2023-05-10T16:02:00;18.60;80.00
6468;DHT22;3267;48.794;9.928;2023-05-10T16:04:28;18.60;79.90
6468;DHT22;3267;48.794;9.928;2023-05-10T16:06:54;18.50;80.10
6468;DHT22;3267;48.794;9.928;2023-05-10T16:09:19;18.50;80.20
6468;DHT22;3267;48.794;9.928;2023-05-10T16:11:46;18.50;80.20
6468;DHT22;3267;48.794;9.928;2023-05-10T16:14:11;18.50;80.10
6468;DHT22;3267;48.794;9.928;2023-05-10T16:16:37;18.50;80.10
6468;DHT22;3267;48.794;9.928;2023-05-10T16:19:02;18.40;79.70
6468;DHT22;3267;48.794;9.928;2023-05-10T16:21:31;20.20;81.60
6468;DHT22;3267;48.794;9.928;2023-05-10T16:23:59;18.40;79.80
6468;DHT22;3267;48.794;9.928;2023-05-10T16:26:24;18.50;80.90
6468;DHT22;3267;48.794;9.928;2023-05-10T16:28:50;18.60;80.40
6468;DHT22;3267;48.794;9.928;2023-05-10T16:31:16;18.70;82.60
6468;DHT22;3267;48.794;9.928;2023-05-10T16:33:45;18.70;80.90
6468;DHT22;3267;48.794;9.928;2023-05-10T16:36:10;18.70;80.80
6468;DHT22;3267;48.794;9.928;2023-05-10T16:38:36;18.70;80.90
6468;DHT22;3267;48.794;9.928;2023-05-10T16:41:02;18.70;80.70
6468;DHT22;3267;48.794;9.928;2023-05-10T16:43:28;18.70;80.20
6468;DHT22;3267;48.794;9.928;2023-05-10T16:45:54;18.60;80.30
6468;DHT22;3267;48.794;9.928;2023-05-10T16:48:20;18.60;80.10
6468;DHT22;3267;48.794;9.928;2023-05-10T16:50:46;18.50;79.80
6468;DHT22;3267;48.794;9.928;2023-05-10T16:53:12;18.60;81.10
6468;DHT22;3267;48.794;9.928;2023-05-10T16:55:38;18.90;84.60
6468;DHT22;3267;48.794;9.928;2023-05-10T16:58:04;18.90;82.00
6468;DHT22;3267;48.794;9.928;2023-05-10T17:00:29;19.00;84.40
6468;DHT22;3267;48.794;9.928;2023-05-10T17:02:55;18.90;81.90
6468;DHT22;3267;48.794;9.928;2023-05-10T17:05:21;18.80;80.40
6468;DHT22;3267;48.794;9.928;2023-05-10T17:07:47;18.60;79.80
6468;DHT22;3267;48.794;9.928;2023-05-10T17:10:12;18.50;79.50
6468;DHT22;3267;48.794;9.928;2023-05-10T17:12:38;18.50;80.10
6468;DHT22;3267;48.794;9.928;2023-05-10T17:15:05;18.50;80.50
6468;DHT22;3267;48.794;9.928;2023-05-10T17:17:31;18.50;80.40
6468;DHT22;3267;48.794;9.928;2023-05-10T17:19:57;18.50;80.60
6468;DHT22;3267;48.794;9.928;2023-05-10T17:22:23;18.60;80.90
6468;DHT22;3267;48.794;9.928;2023-05-10T17:24:49;18.80;80.70
6468;DHT22;3267;48.794;9.928;2023-05-10T17:27:15;18.50;80.10
6468;DHT22;3267;48.794;9.928;2023-05-10T17:29:41;18.40;79.90
6468;DHT22;3267;48.794;9.928;2023-05-10T17:32:06;18.40;80.10
6468;DHT22;3267;48.794;9.928;2023-05-10T17:34:35;18.60;82.50
6468;DHT22;3267;48.794;9.928;2023-05-10T17:37:00;18.70;81.40
6468;DHT22;3267;48.794;9.928;2023-05-10T17:39:26;18.60;81.00
6468;DHT22;3267;48.794;9.928;2023-05-10T17:41:52;18.60;82.40
6468;DHT22;3267;48.794;9.928;2023-05-10T17:44:18;18.50;81.50
6468;DHT22;3267;48.794;9.928;2023-05-10T17:46:44;18.60;81.30
6468;DHT22;3267;48.794;9.928;2023-05-10T17:49:09;18.60;81.80
6468;DHT22;3267;48.794;9.928;2023-05-10T17:51:35;18.60;81.50
6468;DHT22;3267;48.794;9.928;2023-05-10T17:54:01;18.40;80.90
6468;DHT22;3267;48.794;9.928;2023-05-10T17:56:26;18.40;81.10
6468;DHT22;3267;48.794;9.928;2023-05-10T17:58:53;18.30;81.10
6468;DHT22;3267;48.794;9.928;2023-05-10T18:01:18;18.30;81.20
6468;DHT22;3267;48.794;9.928;2023-05-10T18:03:44;18.30;81.40
6468;DHT22;3267;48.794;9.928;2023-05-10T18:06:10;18.30;81.30
6468;DHT22;3267;48.794;9.928;2023-05-10T18:08:36;18.30;81.30
6468;DHT22;3267;48.794;9.928;2023-05-10T18:11:02;18.20;81.40
6468;DHT22;3267;48.794;9.928;2023-05-10T18:13:27;19.30;82.60
6468;DHT22;3267;48.794;9.928;2023-05-10T18:15:53;18.20;81.50
6468;DHT22;3267;48.794;9.928;2023-05-10T18:18:19;18.20;81.70
6468;DHT22;3267;48.794;9.928;2023-05-10T18:20:44;18.10;81.40
6468;DHT22;3267;48.794;9.928;2023-05-10T18:23:11;18.10;81.80
6468;DHT22;3267;48.794;9.928;2023-05-10T18:25:37;18.20;81.80
6468;DHT22;3267;48.794;9.928;2023-05-10T18:28:03;18.10;81.70
6468;DHT22;3267;48.794;9.928;2023-05-10T18:30:28;18.20;81.70
6468;DHT22;3267;48.794;9.928;2023-05-10T18:32:54;18.10;82.60
6468;DHT22;3267;48.794;9.928;2023-05-10T18:35:20;18.00;81.80
6468;DHT22;3267;48.794;9.928;2023-05-10T18:37:45;17.90;81.50
6468;DHT22;3267;48.794;9.928;2023-05-10T18:40:12;17.90;81.70
6468;DHT22;3267;48.794;9.928;2023-05-10T18:42:39;17.90;81.90
6468;DHT22;3267;48.794;9.928;2023-05-10T18:45:06;18.00;82.10
6468;DHT22;3267;48.794;9.928;2023-05-10T18:47:32;18.10;82.50
6468;DHT22;3267;48.794;9.928;2023-05-10T18:49:58;18.10;82.40
6468;DHT22;3267;48.794;9.928;2023-05-10T18:52:24;18.10;83.20
6468;DHT22;3267;48.794;9.928;2023-05-10T18:54:49;18.20;83.50
6468;DHT22;3267;48.794;9.928;2023-05-10T18:57:15;18.20;83.80
6468;DHT22;3267;48.794;9.928;2023-05-10T18:59:41;18.20;83.20
6468;DHT22;3267;48.794;9.928;2023-05-10T19:02:06;18.20;83.20
6468;DHT22;3267;48.794;9.928;2023-05-10T19:04:32;21.00;87.10
6468;DHT22;3267;48.794;9.928;2023-05-10T19:06:58;18.20;84.70
6468;DHT22;3267;48.794;9.928;2023-05-10T19:09:26;18.20;84.90
6468;DHT22;3267;48.794;9.928;2023-05-10T19:11:52;18.20;84.50
6468;DHT22;3267;48.794;9.928;2023-05-10T19:14:17;18.20;85.20
6468;DHT22;3267;48.794;9.928;2023-05-10T19:16:43;18.10;84.50
6468;DHT22;3267;48.794;9.928;2023-05-10T19:19:09;18.10;84.80
6468;DHT22;3267;48.794;9.928;2023-05-10T19:21:34;18.10;84.80
6468;DHT22;3267;48.794;9.928;2023-05-10T19:24:00;18.10;84.80
6468;DHT22;3267;48.794;9.928;2023-05-10T19:26:26;18.10;84.80
6468;DHT22;3267;48.794;9.928;2023-05-10T19:28:53;18.10;85.40
6468;DHT22;3267;48.794;9.928;2023-05-10T19:31:19;18.40;85.80
6468;DHT22;3267;48.794;9.928;2023-05-10T19:33:45;18.00;84.80
6468;DHT22;3267;48.794;9.928;2023-05-10T19:36:11;17.90;84.60
6468;DHT22;3267;48.794;9.928;2023-05-10T19:38:37;18.00;86.00
6468;DHT22;3267;48.794;9.928;2023-05-10T19:41:02;17.90;84.90
6468;DHT22;3267;48.794;9.928;2023-05-10T19:43:30;18.10;86.40
6468;DHT22;3267;48.794;9.928;2023-05-10T19:45:59;18.10;86.30
6468;DHT22;3267;48.794;9.928;2023-05-10T19:48:25;18.00;85.00
6468;DHT22;3267;48.794;9.928;2023-05-10T19:50:52;17.90;84.70
6468;DHT22;3267;48.794;9.928;2023-05-10T19:53:18;20.60;87.40
6468;DHT22;3267;48.794;9.928;2023-05-10T19:55:43;17.80;86.30
6468;DHT22;3267;48.794;9.928;2023-05-10T19:58:09;17.80;84.80
6468;DHT22;3267;48.794;9.928;2023-05-10T20:00:34;17.70;84.50
6468;DHT22;3267;48.794;9.928;2023-05-10T20:03:00;17.70;84.10
6468;DHT22;3267;48.794;9.928;2023-05-10T20:05:27;17.60;83.90
6468;DHT22;3267;48.794;9.928;2023-05-10T20:07:53;18.10;84.60
6468;DHT22;3267;48.794;9.928;2023-05-10T20:10:19;17.60;84.00
6468;DHT22;3267;48.794;9.928;2023-05-10T20:12:47;17.50;84.00
6468;DHT22;3267;48.794;9.928;2023-05-10T20:15:18;17.60;84.20
6468;DHT22;3267;48.794;9.928;2023-05-10T20:17:45;17.60;84.70
6468;DHT22;3267;48.794;9.928;2023-05-10T20:20:12;17.70;85.10
6468;DHT22;3267;48.794;9.928;2023-05-10T20:22:40;18.40;88.20
6468;DHT22;3267;48.794;9.928;2023-05-10T20:25:06;17.80;85.20
6468;DHT22;3267;48.794;9.928;2023-05-10T20:27:32;17.70;84.60
6468;DHT22;3267;48.794;9.928;2023-05-10T20:29:57;17.70;85.30
6468;DHT22;3267;48.794;9.928;2023-05-10T20:32:23;17.60;84.40
6468;DHT22;3267;48.794;9.928;2023-05-10T20:34:48;17.70;85.30
6468;DHT22;3267;48.794;9.928;2023-05-10T20:37:14;17.60;84.60
6468;DHT22;3267;48.794;9.928;2023-05-10T20:39:42;17.60;84.90
6468;DHT22;3267;48.794;9.928;2023-05-10T20:42:08;18.00;85.10
6468;DHT22;3267;48.794;9.928;2023-05-10T20:44:33;17.60;84.40
6468;DHT22;3267;48.794;9.928;2023-05-10T20:46:59;17.30;84.10
6468;DHT22;3267;48.794;9.928;2023-05-10T20:49:25;17.60;84.40
6468;DHT22;3267;48.794;9.928;2023-05-10T20:51:57;17.30;84.10
6468;DHT22;3267;48.794;9.928;2023-05-10T20:54:23;17.20;83.90
6468;DHT22;3267;48.794;9.928;2023-05-10T20:56:49;18.50;85.60
6468;DHT22;3267;48.794;9.928;2023-05-10T20:59:16;17.40;85.10
6468;DHT22;3267;48.794;9.928;2023-05-10T21:01:42;17.30;84.70
6468;DHT22;3267;48.794;9.928;2023-05-10T21:04:08;17.20;83.40
6468;DHT22;3267;48.794;9.928;2023-05-10T21:06:34;17.10;82.80
6468;DHT22;3267;48.794;9.928;2023-05-10T21:08:59;16.90;82.80
6468;DHT22;3267;48.794;9.928;2023-05-10T21:11:25;17.00;83.10
6468;DHT22;3267;48.794;9.928;2023-05-10T21:13:50;17.00;83.30
6468;DHT22;3267;48.794;9.928;2023-05-10T21:16:16;16.90;83.00
6468;DHT22;3267;48.794;9.928;2023-05-10T21:18:42;16.90;82.60
6468;DHT22;3267;48.794;9.928;2023-05-10T21:21:07;16.80;82.20
6468;DHT22;3267;48.794;9.928;2023-05-10T21:23:33;16.70;82.10
6468;DHT22;3267;48.794;9.928;2023-05-10T21:25:59;16.80;83.40
6468;DHT22;3267;48.794;9.928;2023-05-10T21:28:26;16.80;82.30
